createdAt,value
2022-12-22T00:01:34.018Z,26.43
2022-12-22T00:04:19.418Z,26.27
2022-12-22T00:07:06.260Z,26.37
2022-12-22T00:09:51.601Z,25.47
2022-12-22T00:12:38.342Z,24.73
2022-12-22T00:15:24.789Z,27.17
2022-12-22T00:18:10.398Z,27.93
2022-12-22T00:20:55.838Z,26.90
2022-12-22T00:23:42.939Z,25.70
2022-12-22T00:26:28.269Z,26.53
2022-12-22T00:29:13.609Z,25.47
2022-12-22T00:31:59.892Z,25.07
2022-12-22T00:34:47.785Z,24.13
2022-12-22T00:37:33.434Z,25.17
2022-12-22T00:40:20.661Z,25.27
2022-12-22T00:43:06.260Z,25.77
2022-12-22T00:45:51.884Z,25.70
2022-12-22T00:48:42.667Z,24.60
2022-12-22T00:51:28.651Z,24.63
2022-12-22T00:54:14.786Z,24.37
2022-12-22T00:57:01.552Z,23.17
2022-12-22T00:59:47.362Z,22.53
2022-12-22T01:02:33.097Z,24.03
2022-12-22T01:05:18.676Z,23.37
2022-12-22T01:08:03.716Z,23.20
2022-12-22T01:10:49.255Z,22.67
2022-12-22T01:13:35.996Z,22.67
2022-12-22T01:16:21.893Z,22.53
2022-12-22T01:19:07.438Z,21.50
2022-12-22T01:21:52.593Z,22.27
2022-12-22T01:24:38.354Z,21.63
2022-12-22T01:27:23.516Z,22.67
2022-12-22T01:30:10.515Z,27.93
2022-12-22T01:32:55.954Z,25.20
2022-12-22T01:35:43.589Z,22.90
2022-12-22T01:38:29.172Z,21.20
2022-12-22T01:41:16.714Z,21.90
2022-12-22T01:44:02.106Z,22.13
2022-12-22T01:46:52.155Z,22.73
2022-12-22T01:49:42.101Z,24.30
2022-12-22T01:52:29.791Z,25.97
2022-12-22T01:55:20.284Z,30.47
2022-12-22T01:58:06.354Z,30.10
2022-12-22T02:00:51.559Z,30.93
2022-12-22T02:03:40.256Z,33.43
2022-12-22T02:06:38.586Z,33.03
2022-12-22T02:09:41.556Z,30.57
2022-12-22T02:12:35.401Z,29.57
2022-12-22T02:15:26.348Z,30.20
2022-12-22T02:18:21.591Z,29.63
2022-12-22T02:21:13.153Z,30.83
2022-12-22T02:24:23.019Z,29.40
2022-12-22T02:27:12.655Z,25.00
2022-12-22T02:30:01.061Z,22.80
2022-12-22T02:32:46.499Z,23.53
2022-12-22T02:35:33.896Z,25.50
2022-12-22T02:38:28.447Z,24.43
2022-12-22T02:41:25.156Z,25.03
2022-12-22T02:44:26.254Z,23.97
2022-12-22T02:47:21.655Z,24.17
2022-12-22T02:50:13.175Z,25.17
2022-12-22T02:53:00.911Z,25.03
2022-12-22T02:55:46.817Z,22.60
2022-12-22T02:58:32.458Z,21.97
2022-12-22T03:01:20.340Z,23.13
2022-12-22T03:04:06.755Z,25.00
2022-12-22T03:06:52.328Z,22.00
2022-12-22T03:09:38.038Z,22.67
2022-12-22T03:12:23.574Z,22.47
2022-12-22T03:15:08.926Z,24.13
2022-12-22T03:17:55.791Z,25.23
2022-12-22T03:20:40.893Z,23.57
2022-12-22T03:23:26.370Z,24.37
2022-12-22T03:25:54.760Z,23.00
2022-12-22T03:28:23.951Z,23.73
2022-12-22T03:30:57.354Z,23.43
2022-12-22T03:33:26.964Z,24.13
2022-12-22T03:35:54.897Z,21.67
2022-12-22T03:38:22.944Z,22.17
2022-12-22T03:40:50.934Z,22.27
2022-12-22T03:43:37.290Z,23.87
2022-12-22T03:46:22.606Z,24.43
2022-12-22T03:49:06.361Z,25.20
2022-12-22T03:51:34.400Z,23.97
2022-12-22T03:54:02.501Z,24.97
2022-12-22T03:56:30.751Z,25.00
2022-12-22T03:58:59.010Z,23.10
2022-12-22T04:01:27.342Z,24.87
2022-12-22T04:03:57.023Z,23.23
2022-12-22T04:06:25.069Z,24.00
2022-12-22T04:08:53.168Z,24.40
2022-12-22T04:11:38.851Z,23.90
2022-12-22T04:14:06.839Z,24.50
2022-12-22T04:16:35.009Z,25.07
2022-12-22T04:19:04.801Z,24.10
2022-12-22T04:21:32.736Z,23.70
2022-12-22T04:24:00.734Z,26.77
2022-12-22T04:26:28.794Z,24.63
2022-12-22T04:28:57.068Z,25.47
2022-12-22T04:31:25.525Z,25.63
2022-12-22T04:33:53.564Z,26.87
2022-12-22T04:36:22.969Z,25.63
2022-12-22T04:38:50.911Z,25.90
2022-12-22T04:41:18.839Z,25.07
2022-12-22T04:43:46.984Z,25.07
2022-12-22T04:46:15.104Z,24.40
2022-12-22T04:48:43.268Z,22.67
2022-12-22T04:51:11.472Z,23.27
2022-12-22T04:53:40.786Z,23.40
2022-12-22T04:56:09.874Z,22.60
2022-12-22T04:58:38.003Z,22.33
2022-12-22T05:01:14.495Z,21.73
2022-12-22T05:03:42.660Z,22.60
2022-12-22T05:06:11.331Z,22.13
2022-12-22T05:08:40.717Z,21.67
2022-12-22T05:11:08.979Z,22.13
2022-12-22T05:13:37.036Z,21.77
2022-12-22T05:16:06.846Z,22.53
2022-12-22T05:18:35.479Z,21.33
2022-12-22T05:21:05.119Z,22.97
2022-12-22T05:23:33.080Z,21.93
2022-12-22T05:26:02.495Z,22.83
2022-12-22T05:28:32.236Z,22.17
2022-12-22T05:31:05.002Z,23.30
2022-12-22T05:33:33.203Z,22.47
2022-12-22T05:36:01.246Z,21.43
2022-12-22T05:38:29.442Z,22.10
2022-12-22T05:41:03.517Z,22.07
2022-12-22T05:43:34.054Z,22.50
2022-12-22T05:46:04.020Z,21.80
2022-12-22T05:48:37.964Z,21.73
2022-12-22T05:51:08.380Z,22.67
2022-12-22T05:53:36.659Z,22.73
2022-12-22T05:56:05.571Z,21.93
2022-12-22T05:58:35.357Z,22.90
2022-12-22T06:01:03.440Z,24.03
2022-12-22T06:03:32.647Z,24.47
2022-12-22T06:06:01.389Z,24.73
2022-12-22T06:08:30.228Z,23.73
2022-12-22T06:10:59.931Z,24.37
2022-12-22T06:13:28.243Z,23.50
2022-12-22T06:15:57.747Z,23.40
2022-12-22T06:18:25.887Z,24.43
2022-12-22T06:20:54.592Z,23.80
2022-12-22T06:23:23.182Z,23.90
2022-12-22T06:25:58.486Z,24.50
2022-12-22T06:28:27.894Z,26.47
2022-12-22T06:30:57.581Z,25.20
2022-12-22T06:33:25.730Z,25.50
2022-12-22T06:35:58.830Z,25.03
2022-12-22T06:38:28.191Z,24.87
2022-12-22T06:40:56.369Z,23.97
2022-12-22T06:43:23.394Z,23.57
2022-12-22T06:45:51.420Z,24.37
2022-12-22T06:48:21.090Z,21.87
2022-12-22T06:50:49.421Z,21.60
2022-12-22T06:53:17.668Z,22.50
2022-12-22T06:55:46.695Z,21.47
2022-12-22T06:58:14.859Z,23.37
2022-12-22T07:00:43.430Z,22.23
2022-12-22T07:03:11.616Z,20.03
2022-12-22T07:05:41.330Z,21.13
2022-12-22T07:08:09.577Z,19.23
2022-12-22T07:10:55.620Z,19.27
2022-12-22T07:13:24.422Z,21.03
2022-12-22T07:16:00.157Z,17.90
2022-12-22T07:18:30.055Z,18.83
2022-12-22T07:20:59.722Z,25.20
2022-12-22T07:23:28.445Z,19.63
2022-12-22T07:25:56.798Z,19.77
2022-12-22T07:28:25.679Z,18.77
2022-12-22T07:30:56.555Z,20.23
2022-12-22T07:33:24.757Z,19.20
2022-12-22T07:36:04.165Z,19.10
2022-12-22T07:38:34.997Z,19.70
2022-12-22T07:41:05.446Z,20.40
2022-12-22T07:43:32.816Z,19.90
2022-12-22T07:46:01.065Z,19.20
2022-12-22T07:48:47.345Z,18.47
2022-12-22T07:51:16.735Z,18.60
2022-12-22T07:53:44.936Z,18.33
2022-12-22T07:56:13.001Z,18.67
2022-12-22T07:58:41.154Z,18.70
2022-12-22T08:01:09.274Z,19.10
2022-12-22T08:03:37.686Z,18.77
2022-12-22T08:06:06.446Z,18.90
2022-12-22T08:08:36.537Z,21.27
2022-12-22T08:11:04.903Z,22.67
2022-12-22T08:13:33.447Z,18.97
2022-12-22T08:16:05.234Z,17.00
2022-12-22T08:18:34.364Z,23.73
2022-12-22T08:21:03.181Z,22.10
2022-12-22T08:23:31.710Z,20.53
2022-12-22T08:26:04.945Z,18.80
2022-12-22T08:28:35.698Z,18.17
2022-12-22T08:31:05.316Z,17.97
2022-12-22T08:33:33.783Z,17.17
2022-12-22T08:36:07.827Z,17.30
2022-12-22T08:38:36.992Z,16.47
2022-12-22T08:41:07.120Z,17.87
2022-12-22T08:43:35.146Z,17.30
2022-12-22T08:46:03.359Z,19.37
2022-12-22T08:48:31.431Z,21.63
2022-12-22T08:50:59.849Z,20.40
2022-12-22T08:54:03.455Z,26.17
2022-12-22T08:56:17.508Z,21.67
2022-12-22T08:58:45.645Z,18.77
2022-12-22T09:01:18.794Z,19.10
2022-12-22T09:03:50.741Z,19.20
2022-12-22T09:06:22.446Z,19.90
2022-12-22T09:08:55.793Z,19.80
2022-12-22T09:11:25.787Z,19.77
2022-12-22T09:13:55.400Z,20.20
2022-12-22T09:16:27.101Z,21.90
2022-12-22T09:18:57.579Z,22.47
2022-12-22T09:21:26.211Z,24.13
2022-12-22T09:23:55.211Z,21.53
2022-12-22T09:26:28.699Z,23.80
2022-12-22T09:28:57.647Z,24.37
2022-12-22T09:31:27.298Z,22.53
2022-12-22T09:33:55.509Z,24.60
2022-12-22T09:36:26.082Z,23.33
2022-12-22T09:38:54.738Z,22.87
2022-12-22T09:41:31.768Z,22.80
2022-12-22T09:44:04.370Z,24.00
2022-12-22T09:46:36.029Z,22.37
2022-12-22T09:49:06.842Z,20.20
2022-12-22T09:51:40.742Z,32.93
2022-12-22T09:54:11.955Z,21.77
2022-12-22T09:56:41.964Z,21.60
2022-12-22T09:59:12.997Z,21.53
2022-12-22T10:01:56.963Z,21.07
2022-12-22T10:04:40.862Z,20.27
2022-12-22T10:07:18.291Z,20.23
2022-12-22T10:09:50.178Z,20.77
2022-12-22T10:12:23.517Z,20.40
2022-12-22T10:14:53.830Z,20.37
2022-12-22T10:17:25.958Z,22.17
2022-12-22T10:19:56.128Z,19.43
2022-12-22T10:22:30.203Z,27.47
2022-12-22T10:24:59.018Z,20.57
2022-12-22T10:27:31.928Z,18.57
2022-12-22T10:30:22.205Z,19.88
2022-12-22T10:33:04.080Z,20.33
2022-12-22T10:35:51.343Z,19.63
2022-12-22T10:38:24.259Z,20.70
2022-12-22T10:41:01.750Z,21.33
2022-12-22T10:43:34.172Z,19.93
2022-12-22T10:46:03.548Z,21.30
2022-12-22T10:48:38.015Z,20.23
2022-12-22T10:51:09.970Z,19.08
2022-12-22T10:53:47.673Z,19.50
2022-12-22T10:56:26.291Z,20.35
2022-12-22T10:58:57.361Z,19.60
2022-12-22T11:01:29.389Z,19.63
2022-12-22T11:03:59.522Z,20.50
2022-12-22T11:06:28.467Z,19.80
2022-12-22T11:09:16.882Z,19.50
2022-12-22T11:11:51.566Z,18.65
2022-12-22T11:14:31.939Z,17.50
2022-12-22T11:17:04.826Z,16.95
2022-12-22T11:19:59.814Z,18.23
2022-12-22T11:22:39.864Z,24.85
2022-12-22T11:25:30.952Z,17.13
2022-12-22T11:28:18.081Z,16.75
2022-12-22T11:30:56.579Z,17.35
2022-12-22T11:33:41.739Z,23.80
2022-12-22T11:36:19.024Z,16.90
2022-12-22T11:38:51.490Z,17.55
2022-12-22T11:41:36.086Z,16.40
2022-12-22T11:44:19.060Z,16.33
2022-12-22T11:46:54.885Z,16.02
2022-12-22T11:49:46.737Z,16.63
2022-12-22T11:52:30.772Z,16.50
2022-12-22T11:55:15.091Z,17.05
2022-12-22T11:57:57.038Z,17.30
2022-12-22T12:00:42.706Z,16.02
2022-12-22T12:03:57.399Z,16.15
2022-12-22T12:06:46.098Z,16.75
2022-12-22T12:09:29.611Z,16.20
2022-12-22T12:12:04.917Z,16.58
2022-12-22T12:14:40.054Z,18.73
2022-12-22T12:17:19.497Z,16.67
2022-12-22T12:20:02.073Z,17.00
2022-12-22T12:22:44.224Z,16.48
2022-12-22T12:25:26.215Z,17.15
2022-12-22T12:28:09.565Z,17.02
2022-12-22T12:30:46.344Z,17.33
2022-12-22T12:33:19.243Z,17.00
2022-12-22T12:36:00.193Z,18.95
2022-12-22T12:39:06.951Z,18.77
2022-12-22T12:41:35.088Z,18.17
2022-12-22T12:44:04.394Z,19.92
2022-12-22T12:47:13.701Z,20.88
2022-12-22T12:49:58.875Z,19.20
2022-12-22T12:53:14.936Z,19.48
2022-12-22T12:55:59.035Z,19.38
2022-12-22T12:58:49.959Z,19.05
2022-12-22T13:02:03.184Z,20.00
2022-12-22T13:05:13.933Z,21.83
2022-12-22T13:08:11.664Z,19.17
2022-12-22T13:10:42.811Z,35.00
2022-12-22T13:13:47.478Z,21.58
2022-12-22T13:16:30.753Z,20.40
2022-12-22T13:19:00.268Z,19.85
2022-12-22T13:21:52.770Z,20.85
2022-12-22T13:24:28.541Z,21.35
2022-12-22T13:27:05.539Z,22.45
2022-12-22T13:29:44.751Z,21.13
2022-12-22T13:32:29.099Z,24.05
2022-12-22T13:37:57.601Z,23.02
2022-12-22T13:40:28.533Z,21.30
2022-12-22T13:42:59.052Z,21.95
2022-12-22T13:45:35.944Z,20.80
2022-12-22T13:48:10.540Z,19.70
2022-12-22T13:50:41.460Z,21.13
2022-12-22T13:53:41.489Z,20.88
2022-12-22T13:56:06.972Z,19.80
2022-12-22T13:58:40.665Z,20.07
2022-12-22T14:01:19.966Z,19.50
2022-12-22T14:04:01.421Z,20.63
2022-12-22T14:06:32.372Z,18.42
2022-12-22T14:09:16.779Z,18.67
2022-12-22T14:11:51.930Z,19.63
2022-12-22T14:14:25.059Z,20.20
2022-12-22T14:16:57.009Z,19.75
2022-12-22T14:19:26.485Z,19.53
2022-12-22T14:22:03.960Z,19.87
2022-12-22T14:24:38.684Z,20.53
2022-12-22T14:27:13.780Z,20.17
2022-12-22T14:29:42.203Z,20.10
2022-12-22T14:32:39.591Z,21.33
2022-12-22T14:35:22.741Z,20.00
2022-12-22T14:37:52.836Z,20.00
2022-12-22T14:40:32.357Z,19.17
2022-12-22T14:43:02.812Z,17.90
2022-12-22T14:45:32.440Z,19.30
2022-12-22T14:48:02.075Z,19.10
2022-12-22T14:50:30.927Z,18.50
2022-12-22T14:53:00.685Z,17.70
2022-12-22T14:55:32.482Z,17.80
2022-12-22T14:58:05.430Z,18.27
2022-12-22T15:00:39.272Z,15.60
2022-12-22T15:03:31.468Z,16.93
2022-12-22T15:06:24.214Z,16.60
2022-12-22T15:08:53.925Z,17.37
2022-12-22T15:11:25.231Z,18.07
2022-12-22T15:13:53.542Z,16.80
2022-12-22T15:16:24.268Z,18.40
2022-12-22T15:18:54.658Z,19.83
2022-12-22T15:21:23.532Z,18.63
2022-12-22T15:23:51.568Z,17.23
2022-12-22T15:26:19.801Z,17.67
2022-12-22T15:28:48.162Z,17.63
2022-12-22T15:31:18.040Z,17.80
2022-12-22T15:33:46.987Z,18.33
2022-12-22T15:36:16.731Z,18.70
2022-12-22T15:38:45.121Z,17.77
2022-12-22T15:41:13.234Z,17.10
2022-12-22T15:43:58.765Z,18.27
2022-12-22T15:46:28.569Z,17.20
2022-12-22T15:48:56.951Z,17.43
2022-12-22T15:51:30.618Z,18.30
2022-12-22T15:54:00.612Z,16.73
2022-12-22T15:56:33.551Z,17.00
2022-12-22T15:59:03.233Z,17.43
2022-12-22T16:01:31.525Z,18.43
2022-12-22T16:03:59.679Z,17.73
2022-12-22T16:06:29.943Z,17.87
2022-12-22T16:09:05.945Z,18.97
2022-12-22T16:11:37.916Z,17.43
2022-12-22T16:14:07.379Z,17.87
2022-12-22T16:16:36.180Z,19.87
2022-12-22T16:19:04.741Z,18.70
2022-12-22T16:21:34.457Z,18.27
2022-12-22T16:24:04.081Z,18.57
2022-12-22T16:26:32.531Z,27.37
2022-12-22T16:29:01.018Z,18.30
2022-12-22T16:31:29.123Z,20.23
2022-12-22T16:33:58.377Z,19.27
2022-12-22T16:36:27.103Z,19.53
2022-12-22T16:38:56.521Z,22.53
2022-12-22T16:41:27.458Z,26.63
2022-12-22T16:46:45.331Z,29.07
2022-12-22T16:49:26.141Z,24.77
2022-12-22T16:51:56.121Z,17.57
2022-12-22T16:54:28.495Z,20.97
2022-12-22T16:56:56.702Z,19.83
2022-12-22T16:59:26.506Z,19.47
2022-12-22T17:01:57.212Z,20.20
2022-12-22T17:04:29.906Z,19.07
2022-12-22T17:07:00.803Z,19.53
2022-12-22T17:09:40.683Z,19.90
2022-12-22T17:12:12.144Z,19.67
2022-12-22T17:14:41.268Z,24.07
2022-12-22T17:17:16.230Z,20.93
2022-12-22T17:19:44.634Z,21.97
2022-12-22T17:22:24.451Z,20.13
2022-12-22T17:24:57.006Z,20.70
2022-12-22T17:27:28.819Z,19.33
2022-12-22T17:29:58.313Z,21.50
2022-12-22T17:32:33.055Z,22.00
2022-12-22T17:35:01.156Z,21.57
2022-12-22T17:37:30.927Z,21.07
2022-12-22T17:40:07.405Z,20.40
2022-12-22T17:42:36.459Z,21.13
2022-12-22T17:45:04.869Z,19.70
2022-12-22T17:47:38.853Z,21.40
2022-12-22T17:50:15.331Z,19.57
2022-12-22T17:52:44.089Z,20.30
2022-12-22T17:56:01.324Z,20.17
2022-12-22T17:58:19.801Z,20.67
2022-12-22T18:00:48.384Z,23.67
2022-12-22T18:03:18.069Z,21.17
2022-12-22T18:05:48.808Z,21.17
2022-12-22T18:08:22.650Z,22.47
2022-12-22T18:10:52.318Z,23.07
2022-12-22T18:13:22.634Z,25.07
2022-12-22T18:15:50.957Z,46.33
2022-12-22T18:18:21.718Z,26.67
2022-12-22T18:21:06.977Z,30.57
2022-12-22T18:23:41.083Z,26.70
2022-12-22T18:26:35.508Z,23.57
2022-12-22T18:29:04.401Z,22.63
2022-12-22T18:31:33.793Z,23.07
2022-12-22T18:34:02.480Z,24.33
2022-12-22T18:36:34.037Z,23.50
2022-12-22T18:39:03.533Z,32.13
2022-12-22T18:41:35.787Z,24.07
2022-12-22T18:44:04.172Z,24.33
2022-12-22T18:46:32.514Z,22.37
2022-12-22T18:49:05.618Z,24.53
2022-12-22T18:51:38.041Z,23.23
2022-12-22T18:54:22.954Z,24.17
2022-12-22T18:57:01.325Z,24.47
2022-12-22T18:59:33.091Z,25.13
2022-12-22T19:02:05.332Z,24.27
2022-12-22T19:04:33.555Z,26.43
2022-12-22T19:07:02.037Z,26.03
2022-12-22T19:09:30.072Z,24.27
2022-12-22T19:12:00.974Z,26.30
2022-12-22T19:14:30.039Z,25.70
2022-12-22T19:17:00.455Z,28.57
2022-12-22T19:19:31.852Z,29.27
2022-12-22T19:21:59.978Z,30.00
2022-12-22T19:24:29.718Z,28.33
2022-12-22T19:27:01.946Z,25.73
2022-12-22T19:29:38.187Z,26.13
2022-12-22T19:32:09.213Z,24.60
2022-12-22T19:34:38.929Z,25.87
2022-12-22T19:37:07.407Z,25.77
2022-12-22T19:39:36.281Z,28.20
2022-12-22T19:42:06.605Z,25.90
2022-12-22T19:44:36.295Z,30.67
2022-12-22T19:47:12.160Z,29.83
2022-12-22T19:52:23.641Z,27.47
2022-12-22T19:54:51.991Z,27.97
2022-12-22T19:57:24.279Z,28.50
2022-12-22T19:59:54.375Z,29.20
2022-12-22T20:02:28.598Z,28.17
2022-12-22T20:04:58.554Z,28.07
2022-12-22T20:07:31.833Z,27.70
2022-12-22T20:10:01.085Z,27.97
2022-12-22T20:12:35.610Z,28.33
2022-12-22T20:15:15.142Z,27.90
2022-12-22T20:17:44.531Z,34.23
2022-12-22T20:20:15.461Z,27.37
2022-12-22T20:22:47.919Z,28.37
2022-12-22T20:25:21.415Z,28.63
2022-12-22T20:27:57.284Z,29.30
2022-12-22T20:30:28.268Z,29.93
2022-12-22T20:32:56.787Z,28.40
2022-12-22T20:35:26.960Z,26.27
2022-12-22T20:37:55.099Z,27.13
2022-12-22T20:40:25.840Z,28.03
2022-12-22T20:42:55.546Z,28.13
2022-12-22T20:45:24.136Z,26.87
2022-12-22T20:47:53.556Z,28.07
2022-12-22T20:50:23.118Z,28.47
2022-12-22T20:52:52.199Z,31.57
2022-12-22T20:55:22.078Z,28.03
2022-12-22T20:57:51.756Z,30.03
2022-12-22T21:00:24.615Z,29.37
2022-12-22T21:02:55.049Z,28.87
2022-12-22T21:05:25.084Z,27.87
2022-12-22T21:07:53.765Z,29.20
2022-12-22T21:10:27.291Z,31.30
2022-12-22T21:13:16.113Z,29.10
2022-12-22T21:15:54.503Z,30.27
2022-12-22T21:18:25.136Z,30.37
2022-12-22T21:20:54.335Z,30.60
2022-12-22T21:23:22.481Z,30.97
2022-12-22T21:25:54.064Z,30.80
2022-12-22T21:28:27.743Z,30.27
2022-12-22T21:30:58.209Z,30.23
2022-12-22T21:33:26.800Z,29.47
2022-12-22T21:35:57.109Z,28.97
2022-12-22T21:38:29.129Z,29.30
2022-12-22T21:40:58.934Z,28.77
2022-12-22T21:43:27.254Z,29.20
2022-12-22T21:45:57.113Z,28.77
2022-12-22T21:48:25.344Z,26.67
2022-12-22T21:50:53.720Z,29.50
2022-12-22T21:53:23.013Z,28.37
2022-12-22T21:55:51.606Z,29.97
2022-12-22T21:58:19.744Z,30.07
2022-12-22T22:00:50.398Z,29.47
2022-12-22T22:03:21.065Z,29.17
2022-12-22T22:05:51.998Z,29.07
2022-12-22T22:08:21.361Z,28.83
2022-12-22T22:10:50.464Z,27.53
2022-12-22T22:13:18.519Z,27.37
2022-12-22T22:15:46.831Z,26.57
2022-12-22T22:18:17.455Z,26.23
2022-12-22T22:20:48.080Z,25.87
2022-12-22T22:23:17.189Z,27.30
2022-12-22T22:25:47.613Z,26.73
2022-12-22T22:28:15.728Z,27.27
2022-12-22T22:30:43.858Z,27.87
2022-12-22T22:33:12.876Z,28.93
2022-12-22T22:35:41.954Z,27.37
2022-12-22T22:38:14.125Z,26.37
2022-12-22T22:40:44.075Z,27.33
2022-12-22T22:43:12.688Z,25.33
2022-12-22T22:45:41.821Z,25.37
2022-12-22T22:48:18.499Z,27.47
2022-12-22T22:50:47.122Z,25.83
2022-12-22T22:53:17.011Z,26.30
2022-12-22T22:55:45.231Z,25.97
2022-12-22T22:58:13.551Z,26.07
2022-12-22T23:00:41.750Z,25.67
2022-12-22T23:03:10.663Z,25.07
2022-12-22T23:05:38.990Z,26.07
2022-12-22T23:08:07.216Z,25.63
2022-12-22T23:10:41.620Z,25.77
2022-12-22T23:13:10.651Z,27.30
2022-12-22T23:15:38.846Z,26.87
2022-12-22T23:18:07.087Z,26.20
2022-12-22T23:20:35.317Z,27.60
2022-12-22T23:23:03.407Z,25.57
2022-12-22T23:25:31.824Z,27.30
2022-12-22T23:28:01.749Z,27.10
2022-12-22T23:30:29.799Z,26.00
2022-12-22T23:32:58.138Z,24.47
2022-12-22T23:35:26.696Z,25.50
2022-12-22T23:37:55.026Z,25.57
2022-12-22T23:40:50.953Z,29.87
2022-12-22T23:43:14.117Z,26.20
2022-12-22T23:45:42.151Z,25.17
2022-12-22T23:48:11.107Z,26.37
2022-12-22T23:50:39.327Z,32.83
2022-12-22T23:53:07.537Z,31.03
2022-12-22T23:55:35.687Z,27.33
2022-12-22T23:58:04.118Z,28.23
